createdAt,value
2022-12-11T00:00:26.391Z,91.89
2022-12-11T00:01:26.377Z,92.16
2022-12-11T00:02:26.485Z,92.16
2022-12-11T00:03:26.387Z,92.16
2022-12-11T00:04:26.373Z,92.06
2022-12-11T00:05:26.344Z,92.27
2022-12-11T00:06:26.328Z,92.42
2022-12-11T00:07:26.337Z,91.05
2022-12-11T00:08:26.626Z,91.89
2022-12-11T00:09:26.322Z,91.05
2022-12-11T00:10:26.329Z,91.68
2022-12-11T00:11:26.321Z,92.31
2022-12-11T00:12:26.298Z,91.72
2022-12-11T00:13:26.308Z,92.77
2022-12-11T00:14:26.360Z,92.94
2022-12-11T00:15:26.283Z,93.15
2022-12-11T00:16:27.221Z,93.11
2022-12-11T00:17:26.271Z,93.32
2022-12-11T00:18:26.263Z,92.58
2022-12-11T00:19:26.262Z,92.06
2022-12-11T00:20:26.305Z,92.06
2022-12-11T00:21:26.253Z,92.06
2022-12-11T00:22:26.227Z,91.96
2022-12-11T00:23:26.244Z,92.27
2022-12-11T00:24:26.224Z,91.96
2022-12-11T00:25:26.218Z,92.27
2022-12-11T00:26:26.282Z,92.06
2022-12-11T00:27:26.225Z,92.38
2022-12-11T00:28:26.206Z,92.38
2022-12-11T00:29:26.205Z,91.22
2022-12-11T00:30:26.199Z,91.96
2022-12-11T00:31:26.250Z,91.81
2022-12-11T00:32:28.332Z,91.91
2022-12-11T00:33:26.182Z,92.02
2022-12-11T00:34:26.176Z,91.96
2022-12-11T00:35:26.153Z,90.97
2022-12-11T00:36:26.166Z,92.23
2022-12-11T00:37:26.168Z,92.06
2022-12-11T00:38:26.208Z,92.06
2022-12-11T00:39:26.149Z,91.11
2022-12-11T00:40:26.132Z,92.16
2022-12-11T00:41:26.127Z,92.06
2022-12-11T00:42:26.116Z,92.27
2022-12-11T00:43:26.106Z,92.48
2022-12-11T00:44:26.155Z,92.48
2022-12-11T00:45:26.099Z,92.48
2022-12-11T00:46:26.136Z,92.06
2022-12-11T00:47:26.093Z,92.10
2022-12-11T00:48:26.083Z,92.73
2022-12-11T00:49:26.094Z,92.90
2022-12-11T00:50:26.145Z,93.11
2022-12-11T00:51:26.079Z,92.94
2022-12-11T00:52:26.096Z,92.80
2022-12-11T00:53:26.077Z,93.22
2022-12-11T00:54:26.068Z,92.90
2022-12-11T00:55:26.043Z,93.15
2022-12-11T00:56:26.099Z,93.32
2022-12-11T00:57:26.023Z,93.32
2022-12-11T00:58:26.038Z,94.69
2022-12-11T00:59:26.007Z,93.63
2022-12-11T01:00:26.000Z,93.22
2022-12-11T01:01:26.043Z,92.27
2022-12-11T01:02:26.130Z,93.22
2022-12-11T01:03:26.006Z,93.01
2022-12-11T01:04:26.114Z,92.80
2022-12-11T01:05:25.961Z,92.96
2022-12-11T01:06:26.006Z,92.44
2022-12-11T01:07:25.961Z,92.38
2022-12-11T01:08:26.079Z,92.58
2022-12-11T01:09:25.975Z,92.65
2022-12-11T01:10:26.121Z,92.48
2022-12-11T01:11:25.938Z,92.80
2022-12-11T01:12:25.951Z,92.44
2022-12-11T01:13:25.919Z,92.48
2022-12-11T01:14:26.356Z,92.58
2022-12-11T01:15:25.919Z,93.22
2022-12-11T01:16:25.947Z,92.69
2022-12-11T01:17:25.910Z,93.11
2022-12-11T01:18:25.888Z,93.11
2022-12-11T01:19:25.886Z,93.28
2022-12-11T01:20:25.901Z,93.07
2022-12-11T01:21:25.851Z,92.69
2022-12-11T01:22:25.856Z,92.16
2022-12-11T01:23:25.840Z,92.48
2022-12-11T01:24:25.848Z,92.80
2022-12-11T01:25:25.825Z,93.22
2022-12-11T01:26:25.884Z,93.22
2022-12-11T01:27:25.841Z,92.80
2022-12-11T01:28:25.820Z,93.15
2022-12-11T01:29:25.828Z,93.63
2022-12-11T01:30:26.912Z,94.10
2022-12-11T01:31:25.793Z,93.63
2022-12-11T01:32:25.852Z,93.85
2022-12-11T01:33:25.789Z,94.58
2022-12-11T01:34:25.790Z,94.31
2022-12-11T01:35:25.791Z,94.58
2022-12-11T01:36:25.782Z,94.48
2022-12-11T01:37:25.769Z,93.63
2022-12-11T01:38:25.794Z,93.85
2022-12-11T01:39:25.753Z,93.32
2022-12-11T01:40:25.750Z,93.53
2022-12-11T01:41:25.746Z,92.90
2022-12-11T01:42:25.730Z,93.01
2022-12-11T01:43:25.725Z,93.53
2022-12-11T01:44:25.784Z,94.69
2022-12-11T01:45:27.000Z,93.53
2022-12-11T01:46:25.775Z,93.43
2022-12-11T01:47:25.696Z,92.96
2022-12-11T01:48:25.662Z,93.28
2022-12-11T01:49:25.697Z,93.07
2022-12-11T01:50:25.728Z,92.96
2022-12-11T01:51:25.703Z,93.74
2022-12-11T01:52:25.668Z,93.59
2022-12-11T01:53:25.669Z,93.49
2022-12-11T01:54:25.655Z,93.07
2022-12-11T01:55:25.631Z,93.01
2022-12-11T01:56:25.681Z,93.01
2022-12-11T01:57:25.644Z,92.48
2022-12-11T01:58:25.635Z,92.48
2022-12-11T01:59:25.623Z,93.32
2022-12-11T02:00:25.640Z,93.53
2022-12-11T02:01:25.682Z,93.32
2022-12-11T02:02:25.724Z,93.63
2022-12-11T02:03:25.603Z,93.32
2022-12-11T02:04:25.595Z,93.01
2022-12-11T02:05:25.589Z,93.01
2022-12-11T02:06:25.566Z,93.53
2022-12-11T02:07:25.566Z,94.48
2022-12-11T02:08:25.712Z,94.37
2022-12-11T02:09:25.562Z,94.43
2022-12-11T02:10:25.542Z,93.53
2022-12-11T02:11:25.548Z,93.43
2022-12-11T02:12:25.539Z,93.53
2022-12-11T02:13:25.551Z,93.95
2022-12-11T02:14:25.584Z,93.63
2022-12-11T02:15:25.518Z,93.22
2022-12-11T02:16:25.537Z,93.53
2022-12-11T02:17:25.511Z,93.32
2022-12-11T02:18:25.533Z,93.43
2022-12-11T02:19:25.497Z,93.53
2022-12-11T02:20:25.762Z,93.59
2022-12-11T02:21:25.527Z,93.63
2022-12-11T02:22:25.475Z,93.63
2022-12-11T02:23:25.472Z,93.28
2022-12-11T02:24:25.459Z,93.11
2022-12-11T02:25:25.458Z,93.38
2022-12-11T02:26:25.503Z,94.43
2022-12-11T02:27:25.432Z,94.54
2022-12-11T02:28:25.436Z,94.43
2022-12-11T02:29:25.438Z,92.96
2022-12-11T02:30:25.404Z,93.11
2022-12-11T02:31:25.456Z,93.53
2022-12-11T02:32:25.460Z,93.22
2022-12-11T02:33:25.399Z,93.70
2022-12-11T02:34:25.409Z,92.96
2022-12-11T02:35:25.373Z,92.90
2022-12-11T02:36:25.374Z,92.69
2022-12-11T02:37:25.397Z,92.90
2022-12-11T02:38:25.413Z,93.11
2022-12-11T02:39:25.360Z,92.90
2022-12-11T02:40:25.349Z,92.80
2022-12-11T02:41:25.348Z,92.90
2022-12-11T02:42:25.333Z,93.22
2022-12-11T02:43:25.333Z,93.22
2022-12-11T02:44:25.392Z,93.43
2022-12-11T02:45:25.356Z,94.65
2022-12-11T02:46:25.306Z,93.63
2022-12-11T02:47:25.314Z,93.38
2022-12-11T02:48:25.310Z,93.59
2022-12-11T02:49:25.284Z,94.43
2022-12-11T02:50:25.335Z,94.54
2022-12-11T02:51:25.279Z,94.65
2022-12-11T02:52:25.311Z,93.91
2022-12-11T02:53:25.255Z,93.59
2022-12-11T02:54:25.275Z,93.49
2022-12-11T02:55:25.269Z,93.18
2022-12-11T02:56:25.302Z,93.59
2022-12-11T02:57:25.240Z,93.80
2022-12-11T02:58:25.241Z,93.38
2022-12-11T02:59:25.226Z,93.49
2022-12-11T03:00:25.239Z,93.76
2022-12-11T03:01:25.295Z,92.65
2022-12-11T03:02:25.309Z,92.65
2022-12-11T03:03:25.185Z,92.44
2022-12-11T03:04:25.232Z,92.65
2022-12-11T03:05:25.225Z,92.44
2022-12-11T03:06:46.177Z,92.44
2022-12-11T03:07:25.197Z,93.22
2022-12-11T03:08:25.297Z,93.43
2022-12-11T03:09:25.170Z,93.63
2022-12-11T03:10:25.146Z,93.53
2022-12-11T03:11:25.158Z,93.99
2022-12-11T03:12:25.180Z,94.73
2022-12-11T03:13:25.166Z,93.68
2022-12-11T03:14:25.204Z,94.79
2022-12-11T03:15:25.136Z,94.37
2022-12-11T03:16:25.133Z,94.48
2022-12-11T03:17:25.115Z,94.58
2022-12-11T03:18:25.132Z,94.37
2022-12-11T03:19:25.121Z,94.48
2022-12-11T03:20:25.148Z,94.69
2022-12-11T03:21:25.095Z,94.37
2022-12-11T03:22:25.125Z,94.58
2022-12-11T03:23:25.067Z,94.23
2022-12-11T03:24:25.085Z,94.54
2022-12-11T03:25:25.074Z,93.95
2022-12-11T03:26:25.418Z,93.43
2022-12-11T03:27:25.059Z,94.06
2022-12-11T03:28:25.050Z,93.43
2022-12-11T03:29:25.046Z,93.74
2022-12-11T03:30:25.075Z,94.58
2022-12-11T03:31:25.035Z,94.31
2022-12-11T03:32:25.059Z,94.37
2022-12-11T03:33:24.996Z,94.58
2022-12-11T03:34:24.997Z,94.52
2022-12-11T03:35:25.007Z,94.48
2022-12-11T03:36:24.976Z,94.37
2022-12-11T03:37:24.981Z,94.79
2022-12-11T03:38:25.042Z,95.10
2022-12-11T03:39:29.507Z,94.42
2022-12-11T03:40:24.949Z,94.31
2022-12-11T03:41:24.961Z,94.62
2022-12-11T03:42:24.937Z,94.79
2022-12-11T03:43:24.934Z,95.10
2022-12-11T03:44:24.979Z,94.90
2022-12-11T03:45:24.936Z,95.10
2022-12-11T03:46:24.949Z,94.73
2022-12-11T03:47:24.945Z,95.00
2022-12-11T03:48:24.911Z,94.79
2022-12-11T03:49:24.904Z,94.52
2022-12-11T03:50:24.952Z,94.58
2022-12-11T03:51:24.897Z,94.62
2022-12-11T03:52:24.882Z,94.73
2022-12-11T03:53:24.883Z,94.94
2022-12-11T03:54:24.881Z,94.84
2022-12-11T03:55:24.871Z,94.94
2022-12-11T03:56:24.917Z,95.04
2022-12-11T03:57:24.858Z,94.67
2022-12-11T03:58:24.873Z,95.30
2022-12-11T03:59:24.861Z,95.20
2022-12-11T04:00:24.804Z,95.20
2022-12-11T04:01:24.854Z,95.40
2022-12-11T04:02:24.896Z,95.62
2022-12-11T04:03:24.798Z,95.62
2022-12-11T04:04:24.823Z,95.83
2022-12-11T04:05:24.805Z,95.57
2022-12-11T04:06:24.775Z,95.15
2022-12-11T04:07:24.848Z,94.67
2022-12-11T04:08:24.909Z,94.88
2022-12-11T04:09:24.773Z,94.98
2022-12-11T04:10:24.779Z,95.04
2022-12-11T04:11:24.755Z,94.98
2022-12-11T04:12:24.778Z,94.62
2022-12-11T04:13:24.748Z,94.73
2022-12-11T04:14:24.769Z,94.52
2022-12-11T04:15:24.718Z,94.94
2022-12-11T04:16:24.698Z,94.98
2022-12-11T04:17:24.746Z,94.67
2022-12-11T04:18:24.714Z,94.56
2022-12-11T04:19:24.717Z,95.09
2022-12-11T04:20:24.740Z,95.09
2022-12-11T04:21:24.690Z,94.56
2022-12-11T04:22:24.664Z,94.98
2022-12-11T04:23:24.667Z,94.88
2022-12-11T04:24:24.677Z,95.30
2022-12-11T04:25:24.665Z,95.09
2022-12-11T04:26:24.720Z,95.62
2022-12-11T04:27:24.646Z,95.72
2022-12-11T04:28:24.624Z,96.45
2022-12-11T04:29:24.643Z,96.20
2022-12-11T04:30:27.998Z,95.47
2022-12-11T04:31:24.656Z,95.62
2022-12-11T04:32:24.953Z,94.98
2022-12-11T04:33:24.622Z,95.30
2022-12-11T04:34:24.596Z,95.30
2022-12-11T04:35:24.596Z,95.20
2022-12-11T04:36:24.576Z,95.20
2022-12-11T04:37:24.593Z,94.98
2022-12-11T04:38:24.622Z,94.52
2022-12-11T04:39:24.574Z,94.62
2022-12-11T04:40:24.574Z,94.62
2022-12-11T04:41:24.577Z,94.56
2022-12-11T04:42:24.557Z,94.88
2022-12-11T04:43:24.547Z,94.88
2022-12-11T04:44:24.589Z,95.20
2022-12-11T04:45:24.541Z,95.15
2022-12-11T04:46:24.609Z,94.78
2022-12-11T04:47:24.523Z,94.98
2022-12-11T04:48:24.531Z,94.98
2022-12-11T04:49:24.508Z,95.09
2022-12-11T04:50:24.564Z,95.62
2022-12-11T04:51:24.483Z,95.62
2022-12-11T04:52:24.474Z,95.72
2022-12-11T04:53:24.484Z,95.89
2022-12-11T04:54:24.481Z,95.47
2022-12-11T04:55:24.464Z,95.68
2022-12-11T04:56:24.491Z,95.57
2022-12-11T04:57:24.453Z,95.68
2022-12-11T04:58:24.433Z,94.94
2022-12-11T04:59:24.445Z,94.42
2022-12-11T05:00:24.433Z,94.94
2022-12-11T05:01:24.448Z,94.94
2022-12-11T05:02:24.532Z,95.57
2022-12-11T05:03:24.419Z,95.47
2022-12-11T05:04:24.390Z,95.57
2022-12-11T05:05:24.418Z,95.78
2022-12-11T05:06:24.391Z,95.78
2022-12-11T05:07:24.383Z,95.68
2022-12-11T05:08:24.535Z,96.20
2022-12-11T05:09:24.368Z,95.53
2022-12-11T05:10:24.382Z,95.78
2022-12-11T05:11:24.346Z,96.20
2022-12-11T05:12:24.366Z,96.31
2022-12-11T05:13:24.362Z,95.84
2022-12-11T05:14:24.408Z,96.37
2022-12-11T05:15:24.359Z,95.10
2022-12-11T05:16:24.405Z,94.69
2022-12-11T05:17:24.327Z,94.69
2022-12-11T05:18:24.317Z,94.48
2022-12-11T05:19:24.342Z,94.58
2022-12-11T05:20:24.357Z,94.48
2022-12-11T05:21:24.309Z,94.62
2022-12-11T05:22:24.311Z,95.15
2022-12-11T05:23:24.287Z,94.46
2022-12-11T05:24:24.283Z,95.09
2022-12-11T05:25:24.285Z,95.04
2022-12-11T05:26:24.308Z,95.26
2022-12-11T05:27:24.269Z,95.15
2022-12-11T05:28:24.259Z,94.84
2022-12-11T05:29:24.244Z,94.84
2022-12-11T05:30:24.260Z,94.84
2022-12-11T05:31:24.256Z,95.10
2022-12-11T05:32:24.507Z,95.42
2022-12-11T05:33:24.213Z,94.90
2022-12-11T05:34:24.213Z,94.62
2022-12-11T05:35:24.214Z,94.62
2022-12-11T05:36:24.220Z,94.62
2022-12-11T05:37:24.188Z,94.62
2022-12-11T05:38:24.236Z,94.37
2022-12-11T05:39:24.177Z,94.27
2022-12-11T05:40:24.180Z,94.69
2022-12-11T05:41:24.181Z,94.69
2022-12-11T05:42:28.772Z,94.58
2022-12-11T05:43:24.170Z,94.58
2022-12-11T05:44:24.200Z,94.69
2022-12-11T05:45:24.147Z,94.69
2022-12-11T05:46:24.180Z,94.79
2022-12-11T05:47:24.136Z,93.49
2022-12-11T05:48:24.134Z,93.59
2022-12-11T05:49:29.148Z,93.49
2022-12-11T05:50:25.199Z,93.28
2022-12-11T05:51:24.110Z,93.11
2022-12-11T05:52:24.085Z,92.38
2022-12-11T05:53:24.094Z,93.01
2022-12-11T05:54:24.063Z,93.11
2022-12-11T05:55:24.079Z,93.15
2022-12-11T05:56:24.131Z,93.57
2022-12-11T05:57:24.072Z,94.37
2022-12-11T05:58:24.067Z,93.68
2022-12-11T05:59:24.057Z,94.73
2022-12-11T06:00:24.058Z,94.42
2022-12-11T06:01:24.040Z,94.48
2022-12-11T06:02:24.129Z,94.48
2022-12-11T06:03:24.035Z,93.63
2022-12-11T06:04:24.017Z,93.11
2022-12-11T06:05:24.021Z,93.01
2022-12-11T06:06:24.014Z,93.53
2022-12-11T06:07:24.003Z,94.27
2022-12-11T06:08:24.080Z,93.85
2022-12-11T06:09:24.009Z,94.73
2022-12-11T06:10:23.983Z,94.69
2022-12-11T06:11:24.482Z,93.22
2022-12-11T06:12:23.984Z,93.53
2022-12-11T06:13:23.969Z,93.63
2022-12-11T06:14:23.978Z,94.52
2022-12-11T06:15:23.970Z,93.63
2022-12-11T06:16:23.991Z,93.53
2022-12-11T06:17:23.940Z,93.63
2022-12-11T06:18:23.936Z,93.95
2022-12-11T06:19:23.953Z,94.62
2022-12-11T06:20:23.998Z,94.42
2022-12-11T06:21:23.920Z,94.84
2022-12-11T06:22:23.917Z,94.48
2022-12-11T06:23:23.918Z,94.69
2022-12-11T06:24:23.895Z,94.48
2022-12-11T06:25:23.873Z,94.69
2022-12-11T06:26:23.953Z,94.48
2022-12-11T06:27:23.896Z,93.63
2022-12-11T06:28:23.867Z,93.85
2022-12-11T06:29:23.872Z,94.69
2022-12-11T06:30:23.876Z,93.53
2022-12-11T06:31:24.994Z,93.47
2022-12-11T06:32:23.833Z,94.48
2022-12-11T06:33:23.844Z,94.42
2022-12-11T06:34:23.833Z,94.73
2022-12-11T06:35:23.844Z,94.73
2022-12-11T06:36:23.839Z,95.10
2022-12-11T06:37:24.352Z,94.48
2022-12-11T06:38:23.826Z,94.27
2022-12-11T06:39:23.798Z,94.37
2022-12-11T06:40:23.779Z,94.48
2022-12-11T06:41:23.784Z,94.48
2022-12-11T06:42:23.774Z,93.74
2022-12-11T06:43:23.827Z,93.32
2022-12-11T06:44:23.755Z,93.01
2022-12-11T06:45:23.837Z,93.63
2022-12-11T06:46:23.814Z,93.43
2022-12-11T06:47:23.732Z,93.11
2022-12-11T06:48:23.743Z,93.01
2022-12-11T06:49:23.802Z,93.26
2022-12-11T06:50:23.722Z,93.85
2022-12-11T06:51:23.724Z,93.43
2022-12-11T06:52:23.693Z,93.85
2022-12-11T06:53:23.703Z,94.54
2022-12-11T06:54:23.689Z,93.49
2022-12-11T06:55:23.729Z,93.32
2022-12-11T06:56:23.700Z,93.43
2022-12-11T06:57:23.674Z,93.43
2022-12-11T06:58:23.682Z,93.95
2022-12-11T06:59:23.666Z,93.63
2022-12-11T07:00:23.662Z,93.53
2022-12-11T07:01:23.740Z,93.47
2022-12-11T07:02:23.645Z,93.53
2022-12-11T07:03:23.634Z,93.43
2022-12-11T07:04:23.630Z,93.70
2022-12-11T07:05:23.630Z,93.57
2022-12-11T07:06:23.620Z,93.63
2022-12-11T07:07:23.641Z,94.27
2022-12-11T07:08:23.658Z,94.79
2022-12-11T07:09:23.611Z,94.12
2022-12-11T07:10:23.580Z,94.43
2022-12-11T07:11:23.604Z,94.54
2022-12-11T07:12:23.570Z,93.59
2022-12-11T07:13:23.622Z,92.86
2022-12-11T07:14:23.559Z,92.54
2022-12-11T07:15:23.568Z,92.54
2022-12-11T07:16:23.609Z,92.96
2022-12-11T07:17:23.559Z,92.96
2022-12-11T07:18:23.527Z,93.28
2022-12-11T07:19:23.607Z,92.96
2022-12-11T07:20:23.545Z,92.54
2022-12-11T07:21:23.534Z,91.91
2022-12-11T07:22:23.516Z,92.02
2022-12-11T07:23:23.516Z,91.85
2022-12-11T07:24:23.514Z,92.02
2022-12-11T07:25:23.525Z,92.33
2022-12-11T07:26:23.508Z,92.27
2022-12-11T07:27:23.466Z,92.12
2022-12-11T07:28:23.483Z,92.23
2022-12-11T07:29:23.466Z,90.86
2022-12-11T07:30:23.484Z,91.71
2022-12-11T07:31:23.556Z,92.12
2022-12-11T07:32:23.614Z,91.35
2022-12-11T07:33:23.464Z,92.40
2022-12-11T07:34:23.475Z,92.40
2022-12-11T07:35:23.444Z,92.08
2022-12-11T07:36:23.446Z,91.87
2022-12-11T07:37:23.468Z,91.66
2022-12-11T07:38:23.428Z,91.97
2022-12-11T07:39:23.417Z,91.87
2022-12-11T07:40:23.424Z,91.45
2022-12-11T07:41:23.407Z,91.60
2022-12-11T07:42:23.407Z,91.64
2022-12-11T07:43:23.666Z,92.02
2022-12-11T07:44:23.404Z,92.44
2022-12-11T07:45:23.361Z,92.33
2022-12-11T07:46:23.356Z,92.44
2022-12-11T07:47:23.365Z,92.44
2022-12-11T07:48:23.341Z,91.97
2022-12-11T07:49:23.430Z,92.08
2022-12-11T07:50:23.330Z,91.97
2022-12-11T07:51:23.329Z,91.56
2022-12-11T07:52:23.325Z,92.08
2022-12-11T07:53:23.314Z,91.87
2022-12-11T07:54:23.318Z,90.92
2022-12-11T07:55:23.357Z,91.24
2022-12-11T07:56:23.297Z,91.77
2022-12-11T07:57:23.290Z,90.92
2022-12-11T07:58:23.330Z,90.82
2022-12-11T07:59:23.280Z,91.24
2022-12-11T08:00:23.269Z,90.92
2022-12-11T08:01:23.388Z,91.87
2022-12-11T08:02:23.356Z,91.77
2022-12-11T08:03:23.241Z,91.09
2022-12-11T08:04:23.252Z,91.20
2022-12-11T08:05:23.237Z,90.78
2022-12-11T08:06:23.251Z,91.66
2022-12-11T08:07:23.249Z,91.52
2022-12-11T08:08:23.257Z,90.89
2022-12-11T08:09:23.218Z,91.30
2022-12-11T08:10:23.213Z,90.89
2022-12-11T08:11:23.205Z,91.16
2022-12-11T08:12:23.191Z,90.53
2022-12-11T08:13:23.239Z,91.05
2022-12-11T08:14:23.161Z,90.22
2022-12-11T08:15:23.179Z,91.05
2022-12-11T08:16:23.228Z,90.84
2022-12-11T08:17:28.778Z,91.16
2022-12-11T08:18:24.217Z,89.75
2022-12-11T08:19:23.188Z,89.97
2022-12-11T08:20:23.138Z,89.75
2022-12-11T08:21:23.122Z,89.23
2022-12-11T08:22:23.136Z,89.02
2022-12-11T08:23:23.105Z,88.71
2022-12-11T08:24:23.192Z,88.46
2022-12-11T08:25:23.105Z,88.24
2022-12-11T08:26:23.093Z,88.49
2022-12-11T08:27:23.104Z,88.60
2022-12-11T08:28:23.077Z,88.24
2022-12-11T08:29:23.105Z,88.46
2022-12-11T08:30:23.111Z,88.77
2022-12-11T08:31:23.063Z,88.18
2022-12-11T08:32:23.039Z,88.60
2022-12-11T08:33:23.088Z,88.60
2022-12-11T08:34:23.087Z,88.14
2022-12-11T08:35:23.060Z,87.72
2022-12-11T08:36:23.067Z,88.04
2022-12-11T08:37:23.035Z,87.83
2022-12-11T08:38:25.623Z,87.62
2022-12-11T08:39:23.003Z,87.72
2022-12-11T08:40:23.059Z,87.93
2022-12-11T08:41:22.999Z,88.35
2022-12-11T08:42:23.040Z,88.04
2022-12-11T08:43:22.975Z,87.87
2022-12-11T08:44:22.998Z,87.66
2022-12-11T08:45:22.962Z,87.76
2022-12-11T08:46:23.042Z,88.07
2022-12-11T08:47:22.943Z,88.49
2022-12-11T08:48:23.382Z,88.49
2022-12-11T08:49:22.936Z,88.49
2022-12-11T08:50:22.964Z,88.18
2022-12-11T08:51:22.935Z,87.87
2022-12-11T08:52:22.941Z,88.18
2022-12-11T08:53:22.896Z,87.87
2022-12-11T08:54:22.964Z,87.34
2022-12-11T08:55:22.906Z,87.83
2022-12-11T08:56:22.911Z,87.51
2022-12-11T08:57:22.899Z,87.72
2022-12-11T08:58:22.887Z,87.72
2022-12-11T08:59:22.871Z,87.72
2022-12-11T09:00:22.919Z,87.72
2022-12-11T09:01:22.889Z,87.09
2022-12-11T09:02:23.009Z,87.76
2022-12-11T09:03:22.860Z,87.83
2022-12-11T09:04:22.838Z,87.51
2022-12-11T09:05:22.852Z,87.62
2022-12-11T09:06:22.890Z,87.20
2022-12-11T09:07:22.822Z,86.68
2022-12-11T09:08:22.893Z,86.99
2022-12-11T09:09:22.812Z,86.68
2022-12-11T09:10:22.812Z,87.34
2022-12-11T09:11:22.801Z,87.37
2022-12-11T09:12:22.836Z,86.68
2022-12-11T09:13:22.789Z,86.99
2022-12-11T09:14:22.780Z,87.58
2022-12-11T09:15:22.767Z,86.63
2022-12-11T09:16:22.765Z,85.97
2022-12-11T09:17:22.764Z,85.97
2022-12-11T09:18:22.800Z,85.24
2022-12-11T09:19:24.765Z,85.24
2022-12-11T09:20:23.763Z,85.02
2022-12-11T09:21:22.755Z,85.02
2022-12-11T09:22:22.738Z,84.92
2022-12-11T09:23:22.715Z,85.65
2022-12-11T09:24:22.771Z,84.96
2022-12-11T09:25:22.709Z,86.53
2022-12-11T09:26:22.711Z,85.27
2022-12-11T09:27:22.719Z,85.90
2022-12-11T09:28:22.647Z,85.27
2022-12-11T09:29:22.688Z,85.80
2022-12-11T09:30:22.726Z,86.70
2022-12-11T09:31:22.736Z,85.34
2022-12-11T09:32:22.661Z,85.44
2022-12-11T09:33:22.646Z,85.24
2022-12-11T09:34:27.557Z,85.55
2022-12-11T09:35:23.713Z,85.48
2022-12-11T09:36:22.660Z,85.90
2022-12-11T09:37:22.622Z,85.38
2022-12-11T09:38:22.620Z,86.15
2022-12-11T09:39:22.620Z,87.20
2022-12-11T09:40:22.599Z,86.88
2022-12-11T09:41:22.643Z,87.20
2022-12-11T09:42:22.585Z,87.45
2022-12-11T09:43:22.593Z,87.87
2022-12-11T09:44:22.568Z,87.97
2022-12-11T09:45:22.583Z,87.93
2022-12-11T09:46:24.814Z,87.30
2022-12-11T09:47:22.601Z,87.26
2022-12-11T09:48:22.562Z,87.64
2022-12-11T09:49:22.522Z,86.85
2022-12-11T09:50:22.523Z,86.53
2022-12-11T09:51:22.526Z,86.95
2022-12-11T09:52:22.509Z,87.68
2022-12-11T09:53:22.779Z,87.26
2022-12-11T09:54:22.487Z,87.54
2022-12-11T09:55:22.497Z,87.54
2022-12-11T09:56:22.502Z,87.81
2022-12-11T09:57:22.485Z,87.29
2022-12-11T09:58:22.487Z,85.93
2022-12-11T09:59:22.538Z,85.19
2022-12-11T10:00:22.458Z,85.13
2022-12-11T10:01:22.468Z,85.97
2022-12-11T10:02:22.487Z,86.38
2022-12-11T10:03:22.440Z,86.38
2022-12-11T10:04:22.421Z,85.44
2022-12-11T10:05:22.506Z,86.53
2022-12-11T10:06:22.441Z,86.99
2022-12-11T10:07:22.405Z,87.51
2022-12-11T10:08:22.435Z,88.56
2022-12-11T10:09:22.400Z,88.67
2022-12-11T10:10:22.402Z,88.67
2022-12-11T10:11:22.438Z,88.98
2022-12-11T10:12:22.374Z,88.52
2022-12-11T10:13:22.388Z,88.42
2022-12-11T10:14:22.370Z,87.99
2022-12-11T10:15:22.332Z,87.99
2022-12-11T10:16:22.414Z,88.31
2022-12-11T10:17:22.417Z,88.10
2022-12-11T10:18:22.325Z,87.58
2022-12-11T10:19:22.347Z,87.79
2022-12-11T10:20:22.324Z,87.68
2022-12-11T10:21:22.301Z,87.54
2022-12-11T10:22:22.312Z,87.39
2022-12-11T10:23:22.383Z,87.71
2022-12-11T10:24:57.562Z,86.87
2022-12-11T10:25:23.300Z,87.39
2022-12-11T10:26:22.296Z,87.50
2022-12-11T10:27:22.272Z,87.15
2022-12-11T10:28:22.252Z,85.78
2022-12-11T10:29:22.302Z,86.20
2022-12-11T10:30:22.269Z,85.36
2022-12-11T10:31:22.345Z,85.16
2022-12-11T10:32:22.247Z,85.82
2022-12-11T10:33:22.246Z,85.41
2022-12-11T10:34:22.231Z,85.36
2022-12-11T10:35:22.279Z,85.09
2022-12-11T10:36:22.226Z,85.78
2022-12-11T10:37:22.215Z,85.36
2022-12-11T10:38:22.196Z,85.47
2022-12-11T10:39:22.217Z,85.36
2022-12-11T10:40:22.188Z,85.47
2022-12-11T10:41:22.238Z,85.16
2022-12-11T10:42:22.177Z,85.99
2022-12-11T10:43:22.170Z,85.33
2022-12-11T10:44:22.188Z,85.01
2022-12-11T10:45:22.171Z,84.91
2022-12-11T10:46:22.207Z,84.56
2022-12-11T10:47:22.230Z,85.50
2022-12-11T10:48:22.152Z,85.08
2022-12-11T10:49:22.150Z,85.29
2022-12-11T10:50:22.132Z,84.66
2022-12-11T10:51:22.112Z,83.30
2022-12-11T10:52:22.111Z,84.66
2022-12-11T10:53:22.133Z,84.45
2022-12-11T10:54:22.097Z,83.30
2022-12-11T10:55:22.089Z,84.10
2022-12-11T10:56:22.089Z,83.37
2022-12-11T10:57:22.077Z,84.00
2022-12-11T10:58:22.069Z,83.62
2022-12-11T10:59:24.129Z,83.20
2022-12-11T11:00:22.062Z,84.39
2022-12-11T11:01:22.090Z,83.90
2022-12-11T11:02:22.029Z,84.80
2022-12-11T11:03:21.991Z,85.43
2022-12-11T11:04:22.018Z,84.28
2022-12-11T11:05:22.051Z,83.90
2022-12-11T11:06:22.005Z,85.16
2022-12-11T11:07:21.991Z,85.26
2022-12-11T11:08:22.030Z,86.10
2022-12-11T11:09:21.995Z,85.16
2022-12-11T11:10:21.981Z,85.47
2022-12-11T11:11:22.005Z,85.50
2022-12-11T11:12:21.998Z,84.74
2022-12-11T11:13:21.948Z,84.80
2022-12-11T11:14:21.938Z,84.34
2022-12-11T11:15:21.940Z,84.34
2022-12-11T11:16:21.979Z,84.14
2022-12-11T11:17:21.950Z,84.94
2022-12-11T11:18:21.903Z,82.74
2022-12-11T11:19:21.892Z,83.62
2022-12-11T11:20:21.901Z,83.34
2022-12-11T11:21:21.875Z,85.30
2022-12-11T11:22:21.889Z,86.55
2022-12-11T11:23:21.929Z,86.62
2022-12-11T11:24:21.935Z,86.20
2022-12-11T11:25:21.886Z,85.96
2022-12-11T11:26:21.855Z,85.36
2022-12-11T11:27:21.884Z,85.58
2022-12-11T11:28:21.850Z,85.01
2022-12-11T11:29:21.893Z,84.91
2022-12-11T11:30:21.819Z,84.70
2022-12-11T11:31:21.852Z,85.22
2022-12-11T11:32:21.832Z,84.59
2022-12-11T11:33:21.787Z,85.89
2022-12-11T11:34:21.797Z,86.10
2022-12-11T11:35:21.877Z,86.72
2022-12-11T11:36:21.792Z,85.85
2022-12-11T11:37:21.789Z,86.37
2022-12-11T11:38:21.781Z,85.91
2022-12-11T11:39:21.842Z,85.91
2022-12-11T11:40:21.767Z,84.97
2022-12-11T11:41:21.797Z,84.14
2022-12-11T11:42:21.777Z,84.07
2022-12-11T11:43:21.739Z,84.74
2022-12-11T11:44:21.730Z,85.78
2022-12-11T11:45:21.726Z,85.89
2022-12-11T11:46:21.756Z,86.31
2022-12-11T11:47:21.745Z,86.62
2022-12-11T11:48:21.714Z,85.22
2022-12-11T11:49:21.713Z,85.36
2022-12-11T11:50:21.700Z,84.59
2022-12-11T11:51:21.696Z,84.74
2022-12-11T11:52:21.674Z,84.63
2022-12-11T11:53:21.764Z,85.78
2022-12-11T11:54:21.656Z,85.47
2022-12-11T11:55:22.843Z,85.99
2022-12-11T11:56:21.663Z,84.91
2022-12-11T11:57:21.658Z,85.33
2022-12-11T11:58:21.632Z,84.95
2022-12-11T11:59:21.697Z,84.95
2022-12-11T12:00:21.618Z,85.01
2022-12-11T12:01:21.594Z,84.95
2022-12-11T12:02:21.608Z,85.05
2022-12-11T12:03:21.606Z,86.14
2022-12-11T12:04:21.582Z,85.89
2022-12-11T12:05:21.937Z,86.62
2022-12-11T12:06:21.587Z,86.69
2022-12-11T12:07:21.579Z,86.79
2022-12-11T12:08:21.603Z,86.58
2022-12-11T12:09:21.689Z,85.50
2022-12-11T12:10:21.558Z,85.12
2022-12-11T12:11:21.610Z,83.97
2022-12-11T12:12:27.557Z,83.97
2022-12-11T12:13:48.281Z,84.42
2022-12-11T12:14:51.012Z,84.59
2022-12-11T12:15:22.543Z,85.22
2022-12-11T12:16:51.056Z,85.16
2022-12-11T12:17:22.618Z,84.84
2022-12-11T12:18:21.516Z,85.68
2022-12-11T12:19:21.507Z,85.47
2022-12-11T12:20:21.498Z,84.00
2022-12-11T12:21:21.474Z,84.17
2022-12-11T12:22:21.501Z,83.86
2022-12-11T12:23:21.526Z,85.33
2022-12-11T12:24:21.454Z,84.70
2022-12-11T12:25:21.475Z,83.03
2022-12-11T12:26:21.454Z,83.76
2022-12-11T12:27:50.948Z,83.97
2022-12-11T12:28:22.508Z,82.86
2022-12-11T12:29:21.425Z,82.96
2022-12-11T12:30:23.188Z,82.92
2022-12-11T12:31:21.460Z,83.38
2022-12-11T12:32:21.398Z,83.65
2022-12-11T12:33:21.421Z,83.34
2022-12-11T12:34:21.443Z,82.60
2022-12-11T12:35:21.400Z,83.13
2022-12-11T12:36:21.384Z,82.60
2022-12-11T12:37:21.377Z,82.40
2022-12-11T12:38:21.367Z,82.29
2022-12-11T12:39:21.351Z,82.40
2022-12-11T12:40:21.407Z,82.71
2022-12-11T12:41:21.323Z,82.92
2022-12-11T12:42:21.356Z,81.84
2022-12-11T12:43:21.342Z,81.35
2022-12-11T12:44:21.376Z,80.83
2022-12-11T12:45:21.330Z,80.93
2022-12-11T12:46:21.397Z,80.10
2022-12-11T12:47:21.294Z,80.62
2022-12-11T12:48:21.283Z,79.16
2022-12-11T12:49:21.290Z,79.79
2022-12-11T12:50:21.279Z,79.85
2022-12-11T12:51:21.286Z,78.91
2022-12-11T12:52:21.359Z,78.81